createdAt,value
2023-05-19T00:01:30.421Z,9.37
2023-05-19T00:04:01.884Z,8.90
2023-05-19T00:06:31.275Z,8.30
2023-05-19T00:09:00.813Z,8.73
2023-05-19T00:11:29.252Z,8.83
2023-05-19T00:13:58.801Z,19.73
2023-05-19T00:16:28.028Z,4.97
2023-05-19T00:18:56.474Z,5.50
2023-05-19T00:21:24.619Z,4.00
2023-05-19T00:23:52.205Z,3.60
2023-05-19T00:26:21.231Z,5.80
2023-05-19T00:28:49.041Z,10.73
2023-05-19T00:31:16.658Z,6.20
2023-05-19T00:33:44.072Z,5.93
2023-05-19T00:36:11.959Z,6.17
2023-05-19T00:38:40.080Z,6.30
2023-05-19T00:41:08.110Z,7.57
2023-05-19T00:43:35.475Z,8.80
2023-05-19T00:46:03.349Z,5.10
2023-05-19T00:48:30.714Z,7.03
2023-05-19T00:51:03.593Z,5.53
2023-05-19T00:53:31.644Z,3.83
2023-05-19T00:56:01.228Z,5.63
2023-05-19T00:58:30.069Z,9.13
2023-05-19T01:01:02.728Z,11.00
2023-05-19T01:03:31.584Z,9.80
2023-05-19T01:06:01.060Z,6.00
2023-05-19T01:08:30.982Z,7.17
2023-05-19T01:10:59.327Z,10.60
2023-05-19T01:13:27.441Z,12.27
2023-05-19T01:16:01.465Z,9.13
2023-05-19T01:18:46.338Z,9.30
2023-05-19T01:21:45.335Z,9.77
2023-05-19T01:24:39.947Z,6.37
2023-05-19T01:27:39.173Z,15.40
2023-05-19T01:30:30.195Z,12.17
2023-05-19T01:33:00.516Z,11.87
2023-05-19T01:35:29.027Z,9.50
2023-05-19T01:37:58.797Z,12.03
2023-05-19T01:40:28.099Z,2.70
2023-05-19T01:42:57.954Z,3.77
2023-05-19T01:45:25.968Z,6.87
2023-05-19T01:47:55.948Z,4.80
2023-05-19T01:50:23.766Z,9.93
2023-05-19T01:52:51.350Z,7.60
2023-05-19T01:55:19.013Z,5.40
2023-05-19T01:58:00.362Z,5.50
2023-05-19T02:00:36.302Z,6.10
2023-05-19T02:03:17.019Z,7.43
2023-05-19T02:05:52.198Z,5.87
2023-05-19T02:08:26.679Z,6.00
2023-05-19T02:11:07.343Z,4.07
2023-05-19T02:13:40.258Z,5.27
2023-05-19T02:16:08.081Z,5.60
2023-05-19T02:18:36.187Z,9.30
2023-05-19T02:21:04.070Z,3.60
2023-05-19T02:23:31.697Z,6.27
2023-05-19T02:25:59.116Z,29.60
2023-05-19T02:28:27.765Z,4.60
2023-05-19T02:30:55.108Z,9.37
2023-05-19T02:33:24.110Z,8.40
2023-05-19T02:35:52.173Z,5.97
2023-05-19T02:38:20.724Z,4.70
2023-05-19T02:40:48.093Z,7.60
2023-05-19T02:43:15.737Z,6.90
2023-05-19T02:45:43.133Z,8.37
2023-05-19T02:48:10.734Z,5.50
2023-05-19T02:50:38.959Z,5.40
2023-05-19T02:53:07.216Z,3.47
2023-05-19T02:55:34.631Z,10.73
2023-05-19T02:58:02.019Z,8.00
2023-05-19T03:00:29.470Z,7.30
2023-05-19T03:03:02.342Z,9.30
2023-05-19T03:05:31.062Z,6.17
2023-05-19T03:07:58.559Z,4.20
2023-05-19T03:10:26.750Z,6.73
2023-05-19T03:12:54.115Z,9.40
2023-05-19T03:15:22.814Z,9.20
2023-05-19T03:17:50.345Z,7.57
2023-05-19T03:20:18.136Z,8.13
2023-05-19T03:22:45.679Z,5.07
2023-05-19T03:25:13.142Z,7.90
2023-05-19T03:27:41.218Z,7.80
2023-05-19T03:30:09.906Z,9.83
2023-05-19T03:32:37.505Z,6.43
2023-05-19T03:35:05.520Z,6.63
2023-05-19T03:37:32.920Z,8.13
2023-05-19T03:40:00.371Z,6.13
2023-05-19T03:42:27.831Z,8.10
2023-05-19T03:44:55.951Z,5.63
2023-05-19T03:47:23.388Z,6.60
2023-05-19T03:49:50.828Z,9.23
2023-05-19T03:52:18.249Z,4.60
2023-05-19T03:54:45.632Z,5.23
2023-05-19T03:57:13.742Z,5.50
2023-05-19T03:59:41.382Z,9.90
2023-05-19T04:02:09.584Z,3.40
2023-05-19T04:04:37.396Z,7.07
2023-05-19T04:07:04.948Z,6.30
2023-05-19T04:09:34.648Z,9.40
2023-05-19T04:12:02.333Z,7.37
2023-05-19T04:14:29.716Z,5.90
2023-05-19T04:16:57.253Z,13.80
2023-05-19T04:19:25.435Z,5.60
2023-05-19T04:21:52.841Z,4.43
2023-05-19T04:24:20.271Z,6.10
2023-05-19T04:26:47.742Z,9.20
2023-05-19T04:29:17.355Z,4.80
2023-05-19T04:31:44.866Z,5.93
2023-05-19T04:34:12.333Z,8.50
2023-05-19T04:36:40.952Z,5.60
2023-05-19T04:39:11.514Z,10.43
2023-05-19T04:41:39.655Z,7.70
2023-05-19T04:44:08.322Z,5.70
2023-05-19T04:46:35.902Z,9.33
2023-05-19T04:49:03.304Z,5.10
2023-05-19T04:51:31.089Z,6.60
2023-05-19T04:53:59.334Z,5.97
2023-05-19T04:56:28.218Z,6.53
2023-05-19T04:58:55.894Z,8.67
2023-05-19T05:01:25.242Z,4.93
2023-05-19T05:03:54.570Z,3.87
2023-05-19T05:06:22.161Z,7.40
2023-05-19T05:08:50.313Z,7.47
2023-05-19T05:11:19.563Z,8.40
2023-05-19T05:13:47.668Z,6.80
2023-05-19T05:16:16.086Z,6.67
2023-05-19T05:18:46.142Z,10.73
2023-05-19T05:21:14.239Z,8.33
2023-05-19T05:23:42.126Z,10.80
2023-05-19T05:26:16.420Z,8.67
2023-05-19T05:28:44.555Z,7.87
2023-05-19T05:31:12.060Z,11.13
2023-05-19T05:33:39.926Z,7.23
2023-05-19T05:36:08.068Z,8.00
2023-05-19T05:38:35.791Z,7.10
2023-05-19T05:41:03.438Z,4.97
2023-05-19T05:43:31.094Z,4.67
2023-05-19T05:45:59.186Z,7.50
2023-05-19T05:48:27.298Z,9.77
2023-05-19T05:50:56.344Z,10.17
2023-05-19T05:53:25.955Z,3.83
2023-05-19T05:55:53.975Z,11.13
2023-05-19T05:58:21.608Z,6.20
2023-05-19T06:00:50.913Z,5.47
2023-05-19T06:03:23.804Z,7.00
2023-05-19T06:05:51.379Z,11.60
2023-05-19T06:08:19.040Z,5.57
2023-05-19T06:10:47.518Z,6.93
2023-05-19T06:13:21.506Z,6.40
2023-05-19T06:15:48.934Z,5.73
2023-05-19T06:18:16.845Z,5.77
2023-05-19T06:20:45.019Z,5.00
2023-05-19T06:23:12.531Z,7.40
2023-05-19T06:25:40.240Z,6.20
2023-05-19T06:28:07.628Z,6.50
2023-05-19T06:30:36.136Z,9.10
2023-05-19T06:33:03.756Z,5.43
2023-05-19T06:35:31.313Z,6.00
2023-05-19T06:37:59.449Z,6.37
2023-05-19T06:40:26.753Z,6.73
2023-05-19T06:42:54.227Z,7.87
2023-05-19T06:45:21.997Z,5.80
2023-05-19T06:47:49.452Z,4.47
2023-05-19T06:50:16.837Z,7.60
2023-05-19T06:52:46.274Z,7.37
2023-05-19T06:55:14.326Z,16.50
2023-05-19T06:57:41.757Z,4.17
2023-05-19T07:00:11.703Z,6.77
2023-05-19T07:02:39.175Z,4.07
2023-05-19T07:05:07.524Z,5.60
2023-05-19T07:07:34.978Z,7.77
2023-05-19T07:10:02.604Z,6.30
2023-05-19T07:12:30.741Z,6.10
2023-05-19T07:14:58.078Z,7.70
2023-05-19T07:17:25.450Z,6.23
2023-05-19T07:19:52.825Z,4.97
2023-05-19T07:22:20.374Z,7.10
2023-05-19T07:24:47.700Z,4.83
2023-05-19T07:27:15.052Z,7.00
2023-05-19T07:29:43.118Z,13.43
2023-05-19T07:32:10.526Z,12.40
2023-05-19T07:34:37.928Z,3.97
2023-05-19T07:37:05.379Z,4.63
2023-05-19T07:39:34.772Z,4.67
2023-05-19T07:42:02.391Z,7.80
2023-05-19T07:44:30.767Z,4.00
2023-05-19T07:46:59.014Z,3.63
2023-05-19T07:49:26.398Z,3.83
2023-05-19T07:51:53.976Z,4.73
2023-05-19T07:54:21.432Z,2.20
2023-05-19T07:56:48.863Z,4.50
2023-05-19T07:59:16.519Z,7.30
2023-05-19T08:01:43.989Z,1.60
2023-05-19T08:04:13.082Z,4.83
2023-05-19T08:06:42.069Z,3.40
2023-05-19T08:09:09.420Z,8.03
2023-05-19T08:11:36.904Z,7.70
2023-05-19T08:14:06.396Z,5.30
2023-05-19T08:16:33.827Z,8.83
2023-05-19T08:19:03.708Z,2.53
2023-05-19T08:21:34.208Z,4.50
2023-05-19T08:24:01.841Z,5.10
2023-05-19T08:26:29.628Z,3.87
2023-05-19T08:28:56.960Z,10.73
2023-05-19T08:31:24.615Z,2.47
2023-05-19T08:33:52.097Z,7.70
2023-05-19T08:36:19.609Z,4.30
2023-05-19T08:38:48.034Z,3.20
2023-05-19T08:41:16.028Z,4.53
2023-05-19T08:43:44.563Z,3.60
2023-05-19T08:46:15.961Z,3.50
2023-05-19T08:48:44.408Z,5.27
2023-05-19T08:51:20.221Z,7.20
2023-05-19T08:53:50.636Z,9.00
2023-05-19T08:56:22.355Z,2.83
2023-05-19T08:58:51.105Z,2.60
2023-05-19T09:01:19.779Z,8.80
2023-05-19T09:03:48.965Z,6.53
2023-05-19T09:06:16.411Z,4.33
2023-05-19T09:08:44.525Z,2.30
2023-05-19T09:11:12.671Z,3.70
2023-05-19T09:13:40.221Z,8.13
2023-05-19T09:16:08.349Z,4.43
2023-05-19T09:18:39.969Z,9.73
2023-05-19T09:21:07.516Z,3.00
2023-05-19T09:23:35.451Z,6.40
2023-05-19T09:26:04.399Z,4.40
2023-05-19T09:28:33.702Z,2.70
2023-05-19T09:31:03.256Z,2.50
2023-05-19T09:33:32.863Z,7.00
2023-05-19T09:36:00.612Z,3.70
2023-05-19T09:38:28.795Z,4.70
2023-05-19T09:40:57.499Z,5.80
2023-05-19T09:43:26.852Z,2.00
2023-05-19T09:45:59.160Z,4.10
2023-05-19T09:48:27.474Z,8.23
2023-05-19T09:50:56.011Z,8.47
2023-05-19T09:53:24.419Z,4.20
2023-05-19T09:55:55.784Z,4.23
2023-05-19T09:58:24.060Z,3.10
2023-05-19T10:00:54.021Z,5.10
2023-05-19T10:03:23.510Z,8.93
2023-05-19T10:05:52.742Z,2.47
2023-05-19T10:08:21.340Z,4.47
2023-05-19T10:10:48.782Z,11.10
2023-05-19T10:13:17.142Z,4.30
2023-05-19T10:15:57.966Z,3.43
2023-05-19T10:18:28.798Z,4.00
2023-05-19T10:20:57.501Z,6.37
2023-05-19T10:23:25.288Z,13.30
2023-05-19T10:25:56.166Z,5.57
2023-05-19T10:28:27.375Z,8.10
2023-05-19T10:31:01.401Z,5.00
2023-05-19T10:33:40.352Z,3.93
2023-05-19T10:36:25.289Z,2.30
2023-05-19T10:38:58.637Z,3.10
2023-05-19T10:41:35.093Z,6.17
2023-05-19T10:44:09.531Z,3.70
2023-05-19T10:46:37.152Z,5.70
2023-05-19T10:49:07.344Z,4.50
2023-05-19T10:51:35.641Z,7.80
2023-05-19T10:54:07.485Z,3.90
2023-05-19T10:56:41.827Z,3.10
2023-05-19T10:59:29.919Z,3.67
2023-05-19T11:01:57.392Z,4.90
2023-05-19T11:04:48.317Z,3.50
2023-05-19T11:07:21.661Z,2.83
2023-05-19T11:09:51.850Z,2.83
2023-05-19T11:12:21.764Z,1.47
2023-05-19T11:14:52.241Z,5.53
2023-05-19T11:17:21.464Z,4.37
2023-05-19T11:19:54.124Z,2.47
2023-05-19T11:22:24.857Z,2.20
2023-05-19T11:24:54.161Z,11.23
2023-05-19T11:27:25.320Z,4.33
2023-05-19T11:29:53.483Z,2.10
2023-05-19T11:32:21.981Z,7.07
2023-05-19T11:34:49.733Z,3.00
2023-05-19T11:37:17.935Z,9.97
2023-05-19T11:39:46.928Z,3.57
2023-05-19T11:42:14.568Z,7.40
2023-05-19T11:44:42.447Z,2.50
2023-05-19T11:47:10.480Z,2.60
2023-05-19T11:49:37.907Z,10.40
2023-05-19T11:52:06.503Z,13.80
2023-05-19T11:54:36.081Z,1.87
2023-05-19T11:57:04.082Z,5.27
2023-05-19T11:59:34.844Z,2.33
2023-05-19T12:02:13.599Z,3.80
2023-05-19T12:04:41.139Z,2.57
2023-05-19T12:07:11.378Z,3.03
2023-05-19T12:09:39.648Z,6.10
2023-05-19T12:12:07.590Z,2.17
2023-05-19T12:14:35.191Z,6.70
2023-05-19T12:17:11.861Z,2.20
2023-05-19T12:19:40.513Z,7.37
2023-05-19T12:22:08.360Z,4.83
2023-05-19T12:24:37.654Z,4.90
2023-05-19T12:27:12.916Z,1.53
2023-05-19T12:29:40.807Z,1.67
2023-05-19T12:32:09.066Z,4.30
2023-05-19T12:34:37.808Z,4.60
2023-05-19T12:37:05.607Z,6.50
2023-05-19T12:39:33.509Z,5.00
2023-05-19T12:42:04.522Z,4.50
2023-05-19T12:44:38.032Z,2.97
2023-05-19T12:47:06.646Z,1.70
2023-05-19T12:49:34.460Z,2.70
2023-05-19T12:52:04.456Z,2.57
2023-05-19T12:54:34.032Z,6.60
2023-05-19T12:57:01.421Z,5.97
2023-05-19T12:59:38.503Z,3.90
2023-05-19T13:02:07.290Z,2.47
2023-05-19T13:04:35.400Z,3.20
2023-05-19T13:07:02.753Z,1.93
2023-05-19T13:09:34.338Z,1.93
2023-05-19T13:12:01.929Z,4.20
2023-05-19T13:14:29.418Z,4.17
2023-05-19T13:16:56.760Z,1.97
2023-05-19T13:19:26.021Z,2.33
2023-05-19T13:21:53.771Z,4.07
2023-05-19T13:24:21.122Z,2.63
2023-05-19T13:26:48.532Z,4.10
2023-05-19T13:29:16.057Z,4.20
2023-05-19T13:31:43.414Z,3.07
2023-05-19T13:34:10.781Z,4.00
2023-05-19T13:36:39.332Z,4.27
2023-05-19T13:39:06.935Z,4.60
2023-05-19T13:41:34.494Z,5.07
2023-05-19T13:44:02.197Z,6.33
2023-05-19T13:46:44.079Z,4.53
2023-05-19T13:49:12.191Z,3.53
2023-05-19T13:51:42.683Z,3.33
2023-05-19T13:54:10.828Z,13.30
2023-05-19T13:56:40.885Z,9.53
2023-05-19T13:59:08.578Z,5.17
2023-05-19T14:01:36.627Z,2.60
2023-05-19T14:04:05.308Z,5.83
2023-05-19T14:06:33.333Z,4.20
2023-05-19T14:09:01.704Z,2.50
2023-05-19T14:11:29.116Z,4.50
2023-05-19T14:13:56.399Z,5.23
2023-05-19T14:16:25.746Z,2.87
2023-05-19T14:18:53.324Z,2.13
2023-05-19T14:21:23.397Z,2.73
2023-05-19T14:23:51.067Z,2.07
2023-05-19T14:26:19.743Z,5.70
2023-05-19T14:28:47.074Z,6.70
2023-05-19T14:31:14.791Z,3.00
2023-05-19T14:33:42.203Z,4.03
2023-05-19T14:36:09.606Z,4.20
2023-05-19T14:38:37.176Z,2.53
2023-05-19T14:41:04.718Z,3.60
2023-05-19T14:43:32.913Z,4.77
2023-05-19T14:46:00.295Z,3.33
2023-05-19T14:48:27.613Z,4.23
2023-05-19T14:50:55.158Z,4.27
2023-05-19T14:53:22.516Z,4.77
2023-05-19T14:55:49.841Z,6.73
2023-05-19T14:58:28.306Z,2.90
2023-05-19T15:00:58.815Z,4.93
2023-05-19T15:03:26.245Z,4.60
2023-05-19T15:05:53.608Z,2.77
2023-05-19T15:08:20.906Z,6.53
2023-05-19T15:10:49.213Z,4.80
2023-05-19T15:13:18.119Z,3.30
2023-05-19T15:15:45.802Z,5.07
2023-05-19T15:18:17.008Z,3.70
2023-05-19T15:20:45.763Z,3.17
2023-05-19T15:23:13.051Z,5.00
2023-05-19T15:25:40.570Z,7.20
2023-05-19T15:28:08.009Z,4.90
2023-05-19T15:30:35.449Z,8.40
2023-05-19T15:33:03.092Z,3.63
2023-05-19T15:35:31.350Z,5.23
2023-05-19T15:38:04.495Z,3.30
2023-05-19T15:40:32.070Z,6.20
2023-05-19T15:42:59.570Z,4.30
2023-05-19T15:45:26.946Z,6.30
2023-05-19T15:47:55.343Z,3.90
2023-05-19T15:50:22.711Z,4.93
2023-05-19T15:52:50.688Z,5.67
2023-05-19T15:55:18.219Z,3.80
2023-05-19T15:57:45.580Z,5.40
2023-05-19T16:00:14.831Z,5.57
2023-05-19T16:02:42.306Z,3.83
2023-05-19T16:05:09.972Z,8.30
2023-05-19T16:07:37.288Z,3.00
2023-05-19T16:10:06.176Z,3.80
2023-05-19T16:12:33.469Z,4.57
2023-05-19T16:15:00.821Z,2.73
2023-05-19T16:17:28.157Z,12.70
2023-05-19T16:19:55.513Z,6.00
2023-05-19T16:22:24.012Z,4.77
2023-05-19T16:24:51.344Z,6.77
2023-05-19T16:27:19.429Z,6.60
2023-05-19T16:29:46.783Z,4.90
2023-05-19T16:32:14.349Z,9.23
2023-05-19T16:34:41.851Z,8.17
2023-05-19T16:37:09.215Z,7.70
2023-05-19T16:39:36.789Z,4.03
2023-05-19T16:42:04.681Z,4.80
2023-05-19T16:44:32.671Z,4.60
2023-05-19T16:47:00.029Z,6.10
2023-05-19T16:49:27.652Z,5.10
2023-05-19T16:51:55.937Z,2.80
2023-05-19T16:54:23.348Z,5.30
2023-05-19T16:56:50.892Z,4.57
2023-05-19T16:59:18.239Z,4.73
2023-05-19T17:01:46.326Z,8.73
2023-05-19T17:04:14.605Z,6.23
2023-05-19T17:06:42.121Z,22.97
2023-05-19T17:09:09.402Z,4.63
2023-05-19T17:11:36.762Z,8.80
2023-05-19T17:14:07.360Z,4.93
2023-05-19T17:16:34.745Z,6.87
2023-05-19T17:19:03.244Z,6.30
2023-05-19T17:21:31.210Z,5.73
2023-05-19T17:23:58.551Z,8.03
2023-05-19T17:26:26.589Z,6.70
2023-05-19T17:28:53.886Z,7.53
2023-05-19T17:31:21.243Z,9.90
2023-05-19T17:33:48.611Z,10.40
2023-05-19T17:36:16.610Z,5.47
2023-05-19T17:38:43.946Z,7.80
2023-05-19T17:41:13.199Z,10.40
2023-05-19T17:43:41.212Z,7.73
2023-05-19T17:46:09.011Z,6.00
2023-05-19T17:48:36.630Z,7.93
2023-05-19T17:51:06.377Z,5.40
2023-05-19T17:53:35.839Z,7.23
2023-05-19T17:56:05.840Z,6.30
2023-05-19T17:58:40.650Z,5.90
2023-05-19T18:01:08.623Z,5.00
2023-05-19T18:03:36.805Z,5.30
2023-05-19T18:06:04.789Z,8.63
2023-05-19T18:08:34.166Z,10.70
2023-05-19T18:11:02.242Z,7.60
2023-05-19T18:13:30.157Z,6.47
2023-05-19T18:15:59.094Z,3.50
2023-05-19T18:18:26.500Z,7.40
2023-05-19T18:20:54.210Z,7.37
2023-05-19T18:23:22.472Z,7.00
2023-05-19T18:25:51.085Z,7.33
2023-05-19T18:28:18.422Z,5.17
2023-05-19T18:30:45.807Z,4.07
2023-05-19T18:33:13.487Z,7.33
2023-05-19T18:35:40.925Z,10.03
2023-05-19T18:38:08.355Z,7.43
2023-05-19T18:40:35.951Z,5.40
2023-05-19T18:43:04.058Z,4.80
2023-05-19T18:45:31.430Z,6.83
2023-05-19T18:47:58.912Z,7.27
2023-05-19T18:50:26.395Z,6.20
2023-05-19T18:52:53.704Z,6.20
2023-05-19T18:55:21.221Z,7.23
2023-05-19T18:57:48.583Z,4.73
2023-05-19T19:00:18.125Z,8.20
2023-05-19T19:02:45.768Z,5.53
2023-05-19T19:05:13.271Z,14.67
2023-05-19T19:07:41.164Z,6.57
2023-05-19T19:10:09.325Z,6.00
2023-05-19T19:12:36.865Z,6.10
2023-05-19T19:15:04.785Z,11.10
2023-05-19T19:17:32.821Z,7.10
2023-05-19T19:20:00.282Z,10.97
2023-05-19T19:22:27.871Z,8.47
2023-05-19T19:24:55.183Z,8.90
2023-05-19T19:27:24.048Z,12.13
2023-05-19T19:29:51.543Z,11.40
2023-05-19T19:32:18.919Z,10.40
2023-05-19T19:34:47.075Z,12.87
2023-05-19T19:37:14.465Z,9.17
2023-05-19T19:39:41.888Z,8.83
2023-05-19T19:42:09.252Z,8.07
2023-05-19T19:44:36.596Z,8.00
2023-05-19T19:47:05.518Z,8.70
2023-05-19T19:49:33.004Z,10.17
2023-05-19T19:52:01.307Z,10.83
2023-05-19T19:54:28.698Z,11.80
2023-05-19T19:56:56.036Z,13.33
2023-05-19T19:59:24.624Z,10.83
2023-05-19T20:01:51.987Z,17.50
2023-05-19T20:04:19.509Z,12.77
2023-05-19T20:06:47.084Z,15.97
2023-05-19T20:09:15.375Z,7.67
2023-05-19T20:11:42.898Z,11.03
2023-05-19T20:14:10.627Z,8.73
2023-05-19T20:16:39.517Z,12.07
2023-05-19T20:19:09.025Z,14.03
2023-05-19T20:21:36.828Z,20.50
2023-05-19T20:24:04.602Z,13.30
2023-05-19T20:26:32.655Z,17.17
2023-05-19T20:29:00.161Z,15.00
2023-05-19T20:31:27.569Z,17.23
2023-05-19T20:33:55.002Z,18.43
2023-05-19T20:36:22.383Z,19.50
2023-05-19T20:38:49.724Z,17.80
2023-05-19T20:41:17.069Z,17.37
2023-05-19T20:43:45.144Z,11.87
2023-05-19T20:46:13.154Z,17.40
2023-05-19T20:48:40.525Z,17.30
2023-05-19T20:51:07.804Z,17.50
2023-05-19T20:53:35.851Z,15.73
2023-05-19T20:56:06.029Z,17.47
2023-05-19T20:58:33.448Z,18.70
2023-05-19T21:01:01.515Z,21.03
2023-05-19T21:03:29.847Z,21.40
2023-05-19T21:05:57.476Z,31.20
2023-05-19T21:08:25.086Z,18.37
2023-05-19T21:10:52.469Z,19.17
2023-05-19T21:13:19.841Z,17.80
2023-05-19T21:15:47.247Z,19.03
2023-05-19T21:18:15.364Z,17.50
2023-05-19T21:20:42.732Z,20.53
2023-05-19T21:23:10.208Z,21.27
2023-05-19T21:25:38.926Z,18.40
2023-05-19T21:28:06.230Z,18.57
2023-05-19T21:30:33.704Z,16.57
2023-05-19T21:33:01.287Z,18.20
2023-05-19T21:35:29.389Z,15.47
2023-05-19T21:37:56.739Z,16.57
2023-05-19T21:40:24.066Z,20.30
2023-05-19T21:42:51.460Z,18.27
2023-05-19T21:45:18.829Z,18.27
2023-05-19T21:47:46.325Z,17.03
2023-05-19T21:50:16.625Z,18.10
2023-05-19T21:52:44.678Z,19.30
2023-05-19T21:55:12.015Z,18.23
2023-05-19T21:57:39.705Z,19.33
2023-05-19T22:00:12.186Z,20.73
2023-05-19T22:02:39.830Z,21.30
2023-05-19T22:05:07.877Z,21.70
2023-05-19T22:07:35.361Z,19.10
2023-05-19T22:10:03.819Z,17.37
2023-05-19T22:12:31.788Z,17.27
2023-05-19T22:15:00.145Z,21.20
2023-05-19T22:17:28.216Z,15.23
2023-05-19T22:19:55.551Z,18.73
2023-05-19T22:22:22.877Z,17.97
2023-05-19T22:24:50.278Z,21.00
2023-05-19T22:27:18.302Z,16.87
2023-05-19T22:29:45.701Z,15.97
2023-05-19T22:32:13.450Z,17.47
2023-05-19T22:34:41.046Z,18.40
2023-05-19T22:37:08.405Z,21.63
2023-05-19T22:39:35.868Z,18.00
2023-05-19T22:42:06.774Z,20.87
2023-05-19T22:44:34.756Z,20.37
2023-05-19T22:47:02.090Z,17.40
2023-05-19T22:49:29.478Z,18.10
2023-05-19T22:51:56.788Z,18.47
2023-05-19T22:54:24.120Z,19.97
2023-05-19T22:56:51.500Z,16.50
2023-05-19T22:59:19.554Z,17.23
2023-05-19T23:01:47.665Z,19.60
2023-05-19T23:04:15.070Z,22.30
2023-05-19T23:06:42.535Z,20.33
2023-05-19T23:09:09.860Z,18.80
2023-05-19T23:11:37.146Z,20.60
2023-05-19T23:14:04.560Z,18.73
2023-05-19T23:16:31.915Z,17.20
2023-05-19T23:19:00.020Z,18.47
2023-05-19T23:21:27.422Z,17.60
2023-05-19T23:23:55.090Z,21.93
2023-05-19T23:26:22.516Z,22.17
2023-05-19T23:28:50.197Z,24.03
2023-05-19T23:31:17.532Z,17.43
2023-05-19T23:33:44.885Z,23.20
2023-05-19T23:36:12.885Z,30.90
2023-05-19T23:38:40.273Z,20.47
2023-05-19T23:41:07.733Z,22.67
2023-05-19T23:43:35.126Z,20.73
2023-05-19T23:46:02.550Z,23.27
2023-05-19T23:48:30.587Z,23.07
2023-05-19T23:50:58.165Z,29.93
2023-05-19T23:53:26.253Z,18.10
2023-05-19T23:55:53.562Z,21.40
2023-05-19T23:58:22.649Z,24.13
